Time;durP1;ratioP1;P1;durP2;ratioP2;P2;SDS_P1;SDS_P2;PMS_P1;PMS_P2;Temp;Humidity;BMP_temperature;BMP_pressure;BME280_temperature;BME280_humidity;BME280_pressure;Samples;Min_cycle;Max_cycle;Signal;HPM_P1;HPM_P2
2022/08/03 00:00:12;;;;;;;3.30;2.00;;;27.50;99.90;;;;;;5018270;28;20245;-94
2022/08/03 00:02:47;;;;;;;5.73;2.27;;;27.00;99.90;;;;;;5018004;28;20236;-94
2022/08/03 00:05:19;;;;;;;3.63;2.20;;;27.00;99.90;;;;;;5018295;28;20182;-94
2022/08/03 00:07:51;;;;;;;4.03;2.17;;;27.00;99.90;;;;;;5018137;28;20209;-94
2022/08/03 00:10:22;;;;;;;4.90;2.20;;;27.10;99.90;;;;;;5017393;28;20202;-95
2022/08/03 00:12:53;;;;;;;6.17;2.03;;;26.60;99.90;;;;;;5008189;28;20675;-95
2022/08/03 00:15:24;;;;;;;4.90;1.97;;;27.00;99.90;;;;;;5004747;28;20210;-94
2022/08/03 00:17:59;;;;;;;5.37;2.17;;;27.10;99.90;;;;;;5007012;28;20218;-94
2022/08/03 00:20:30;;;;;;;5.07;2.20;;;27.10;99.90;;;;;;5000350;28;20217;-94
2022/08/03 00:25:48;;;;;;;5.07;2.20;;;26.50;99.90;;;;;;5005218;28;20207;-94
2022/08/03 00:28:19;;;;;;;6.53;1.83;;;26.70;99.90;;;;;;5000454;28;20268;-93
2022/08/03 00:30:56;;;;;;;6.10;2.17;;;26.90;99.90;;;;;;5004452;28;20206;-94
2022/08/03 00:33:58;;;;;;;5.67;2.47;;;27.10;99.90;;;;;;5003985;28;20268;-94
2022/08/03 00:36:43;;;;;;;3.00;2.07;;;27.00;99.90;;;;;;5007762;28;20217;-94
2022/08/03 00:39:15;;;;;;;3.70;2.20;;;26.80;99.90;;;;;;5005413;28;20660;-93
2022/08/03 00:41:47;;;;;;;3.43;2.00;;;26.70;99.90;;;;;;5004248;28;20300;-94
2022/08/03 00:44:23;;;;;;;5.97;2.03;;;26.90;99.90;;;;;;5002967;28;20261;-93
2022/08/03 00:47:19;;;;;;;6.10;2.40;;;26.70;99.90;;;;;;5009026;28;20210;-93
2022/08/03 00:49:53;;;;;;;5.77;2.00;;;26.40;99.90;;;;;;5009006;28;20207;-94
2022/08/03 00:52:27;;;;;;;7.10;2.63;;;26.40;99.90;;;;;;5000705;28;20252;-94
2022/08/03 00:54:59;;;;;;;4.90;2.33;;;26.40;99.90;;;;;;5003285;28;20260;-94
2022/08/03 00:57:33;;;;;;;10.03;6.57;;;26.40;99.90;;;;;;5007651;28;20212;-93
2022/08/03 01:00:21;;;;;;;5.13;2.60;;;26.50;99.90;;;;;;5007451;28;20218;-95
2022/08/03 01:03:12;;;;;;;8.80;5.30;;;26.40;99.90;;;;;;5009098;28;20352;-94
2022/08/03 01:05:52;;;;;;;4.53;2.70;;;26.70;99.90;;;;;;5014775;28;20191;-95
2022/08/03 01:08:43;;;;;;;4.47;2.27;;;26.50;99.90;;;;;;5015343;28;20205;-93
2022/08/03 01:11:25;;;;;;;5.63;2.07;;;26.70;99.90;;;;;;5014027;28;20207;-93
2022/08/03 01:14:07;;;;;;;4.60;2.27;;;27.00;99.90;;;;;;5006206;28;20218;-93
2022/08/03 01:16:57;;;;;;;4.60;1.90;;;27.00;99.90;;;;;;5017060;28;20214;-93
2022/08/03 01:19:52;;;;;;;4.53;2.17;;;27.70;99.90;;;;;;5020638;28;20300;-93
2022/08/03 01:22:52;;;;;;;5.60;2.17;;;28.10;99.90;;;;;;5009034;28;20265;-94
2022/08/03 01:25:41;;;;;;;4.60;2.10;;;27.70;99.90;;;;;;5000810;28;20246;-94
2022/08/03 01:28:28;;;;;;;7.27;2.10;;;28.00;99.90;;;;;;5001905;28;20206;-93
2022/08/03 01:31:07;;;;;;;4.83;1.90;;;28.50;99.90;;;;;;4999067;28;20265;-93
2022/08/03 01:33:43;;;;;;;4.13;1.77;;;28.70;99.90;;;;;;4999513;28;20209;-94
2022/08/03 01:36:17;;;;;;;3.27;1.77;;;28.80;97.70;;;;;;4998564;28;20218;-94
2022/08/03 01:38:57;;;;;;;4.23;1.80;;;29.10;96.50;;;;;;5003270;28;20528;-94
2022/08/03 01:41:43;;;;;;;4.77;2.03;;;29.30;96.40;;;;;;5003435;28;20234;-93
2022/08/03 01:44:15;;;;;;;7.03;2.13;;;29.20;97.80;;;;;;5004082;28;20268;-94
2022/08/03 01:47:03;;;;;;;5.80;2.23;;;29.50;97.70;;;;;;5004540;28;20214;-94
2022/08/03 01:49:39;;;;;;;4.27;2.00;;;29.60;96.80;;;;;;5003319;28;20245;-93
2022/08/03 01:52:12;;;;;;;4.13;2.00;;;29.50;96.30;;;;;;4998475;28;20276;-94
2022/08/03 01:54:46;;;;;;;4.67;2.30;;;29.20;97.00;;;;;;4985577;28;20211;-93
2022/08/03 01:57:19;;;;;;;5.13;2.30;;;28.80;98.30;;;;;;4981923;28;20682;-94
2022/08/03 01:59:53;;;;;;;2.93;1.90;;;28.00;98.40;;;;;;4983313;28;20211;-93
2022/08/03 02:02:27;;;;;;;4.27;1.93;;;27.70;98.80;;;;;;4986743;28;20700;-94
2022/08/03 02:05:11;;;;;;;4.03;2.20;;;27.50;99.80;;;;;;4984551;28;20207;-93
2022/08/03 02:08:03;;;;;;;12.47;2.17;;;27.10;99.50;;;;;;4993085;28;20197;-94
2022/08/03 02:10:38;;;;;;;4.97;2.20;;;26.70;99.20;;;;;;4996304;28;20218;-94
2022/08/03 02:13:21;;;;;;;4.50;2.20;;;26.20;99.90;;;;;;4993747;28;20238;-94
2022/08/03 02:29:27;;;;;;;8.20;2.57;;;23.90;99.90;;;;;;5030769;28;20289;-92
2022/08/03 02:32:21;;;;;;;5.80;3.10;;;23.70;99.90;;;;;;5033206;28;20217;-93
2022/08/03 02:38:18;;;;;;;5.93;2.33;;;23.50;99.90;;;;;;5035961;28;20261;-94
2022/08/03 02:41:23;;;;;;;4.27;2.30;;;23.40;99.90;;;;;;5027601;28;20497;-94
2022/08/03 02:43:56;;;;;;;3.77;2.27;;;23.30;99.90;;;;;;5026325;28;20210;-94
2022/08/03 02:46:48;;;;;;;5.70;2.43;;;23.30;99.90;;;;;;5002152;28;20202;-94
2022/08/03 02:49:20;;;;;;;6.90;2.70;;;23.30;99.90;;;;;;5001468;28;20257;-94
2022/08/03 03:05:02;;;;;;;6.37;2.43;;;22.60;99.90;;;;;;5034181;28;20217;-94
2022/08/03 03:08:03;;;;;;;5.90;2.50;;;22.50;99.90;;;;;;5028305;28;20276;-93
2022/08/03 03:10:52;;;;;;;3.30;2.07;;;22.40;99.90;;;;;;5032053;28;20210;-93
2022/08/03 03:13:27;;;;;;;4.97;2.23;;;22.30;99.90;;;;;;5032373;28;20232;-94
2022/08/03 03:24:22;;;;;;;5.07;2.70;;;22.00;99.90;;;;;;5875589;23;20264;-95
2022/08/03 03:26:55;;;;;;;5.47;2.60;;;21.80;99.90;;;;;;5019868;28;20201;-96
2022/08/03 03:29:27;;;;;;;5.67;2.73;;;21.80;99.90;;;;;;5019773;28;20205;-95
2022/08/03 03:32:06;;;;;;;5.47;2.70;;;21.80;99.90;;;;;;5018768;28;20245;-95
2022/08/03 03:37:33;;;;;;;4.80;2.43;;;21.60;99.90;;;;;;5019905;28;20210;-94
2022/08/03 03:40:10;;;;;;;5.07;2.57;;;21.60;99.90;;;;;;5023957;28;20272;-94
2022/08/03 03:42:41;;;;;;;4.67;2.40;;;21.50;99.90;;;;;;5019532;28;20241;-95
2022/08/03 03:45:14;;;;;;;5.63;2.63;;;21.40;99.90;;;;;;5020642;28;20228;-94
2022/08/03 03:47:45;;;;;;;5.07;2.43;;;21.40;99.90;;;;;;5023841;28;20574;-94
2022/08/03 03:55:47;;;;;;;6.57;2.70;;;21.20;99.90;;;;;;5105866;23;20240;-95
2022/08/03 04:12:52;;;;;;;7.10;3.00;;;20.70;99.90;;;;;;5020029;28;20213;-95
2022/08/03 04:15:26;;;;;;;7.17;2.80;;;20.70;99.90;;;;;;5018358;28;20259;-94
2022/08/03 04:18:00;;;;;;;6.03;2.80;;;20.60;99.90;;;;;;5018910;28;20206;-95
2022/08/03 04:20:35;;;;;;;5.60;2.70;;;20.60;99.90;;;;;;5023009;28;20205;-95
2022/08/03 04:23:12;;;;;;;6.30;3.20;;;20.60;99.90;;;;;;5019505;28;20660;-94
2022/08/03 04:25:46;;;;;;;5.60;2.73;;;20.60;99.90;;;;;;5020360;28;20235;-94
2022/08/03 04:28:22;;;;;;;4.90;2.80;;;20.50;99.90;;;;;;5027883;28;20213;-95
2022/08/03 04:31:03;;;;;;;6.27;2.87;;;20.40;99.90;;;;;;5036485;28;20209;-94
2022/08/03 04:33:40;;;;;;;5.07;2.90;;;20.40;99.90;;;;;;5034664;28;20197;-94
2022/08/03 04:36:15;;;;;;;6.40;2.90;;;20.40;99.90;;;;;;5037382;28;20209;-94
2022/08/03 04:38:57;;;;;;;6.70;3.13;;;20.30;99.90;;;;;;5027930;28;20213;-94
2022/08/03 04:41:30;;;;;;;4.57;2.37;;;20.30;99.90;;;;;;5018401;28;20285;-94
2022/08/03 04:44:30;;;;;;;6.90;3.00;;;20.20;99.90;;;;;;5019964;28;20233;-95
2022/08/03 04:47:06;;;;;;;4.63;2.80;;;20.20;99.90;;;;;;5025052;28;20623;-94
2022/08/03 04:49:38;;;;;;;5.50;2.80;;;20.10;99.90;;;;;;5019668;28;20228;-94
2022/08/03 04:52:11;;;;;;;3.60;2.63;;;20.10;99.90;;;;;;5020053;28;20201;-94
2022/08/03 04:54:56;;;;;;;5.20;3.17;;;20.00;99.90;;;;;;5021172;28;20673;-93
2022/08/03 04:57:35;;;;;;;5.93;2.57;;;20.00;99.90;;;;;;5023381;28;20236;-95
2022/08/03 05:02:58;;;;;;;4.17;2.80;;;19.90;99.90;;;;;;5017238;28;20233;-94
2022/08/03 05:08:27;;;;;;;4.53;2.73;;;19.90;99.90;;;;;;5018663;28;20206;-94
2022/08/03 05:11:01;;;;;;;7.23;2.73;;;19.90;99.90;;;;;;5017139;28;20295;-94
2022/08/03 05:13:32;;;;;;;3.97;2.90;;;19.80;99.90;;;;;;5018131;28;20237;-94
2022/08/03 05:16:11;;;;;;;4.33;2.67;;;19.80;99.90;;;;;;5018220;28;20214;-94
2022/08/03 05:18:51;;;;;;;6.87;2.90;;;19.80;99.90;;;;;;5017839;28;20213;-94
2022/08/03 05:21:24;;;;;;;3.63;2.67;;;19.70;99.90;;;;;;5016931;28;20602;-94
2022/08/03 05:24:24;;;;;;;6.70;3.57;;;19.60;99.90;;;;;;5001802;28;20233;-94
2022/08/03 05:27:00;;;;;;;7.20;3.57;;;19.50;99.90;;;;;;5022797;28;20205;-95
2022/08/03 05:29:31;;;;;;;5.37;3.13;;;19.50;99.90;;;;;;5023083;28;20283;-95
2022/08/03 05:32:07;;;;;;;6.10;2.70;;;19.40;99.90;;;;;;5023782;28;20210;-96
2022/08/03 05:34:39;;;;;;;5.63;3.10;;;19.30;99.90;;;;;;5021548;28;20205;-94
2022/08/03 05:37:14;;;;;;;4.43;2.80;;;19.30;99.90;;;;;;5021710;28;20277;-94
2022/08/03 05:39:47;;;;;;;6.60;3.07;;;19.30;99.90;;;;;;5024298;28;20279;-95
2022/08/03 05:42:24;;;;;;;3.93;2.87;;;19.20;99.90;;;;;;5017662;28;20274;-95
2022/08/03 05:44:58;;;;;;;3.47;2.60;;;19.00;99.90;;;;;;5020247;28;20220;-94
2022/08/03 05:59:09;;;;;;;8.80;2.90;;;18.80;99.90;;;;;;5027199;28;20205;-94
2022/08/03 06:05:15;;;;;;;5.97;2.80;;;18.70;99.90;;;;;;5027686;28;20268;-95
2022/08/03 06:07:48;;;;;;;4.63;2.60;;;18.60;99.90;;;;;;5028960;28;20227;-94
2022/08/03 06:10:20;;;;;;;3.70;3.17;;;18.60;99.90;;;;;;5028218;28;20245;-94
2022/08/03 06:15:51;;;;;;;6.03;3.23;;;18.40;99.90;;;;;;5040409;28;20217;-93
2022/08/03 06:18:23;;;;;;;5.10;2.80;;;18.50;99.90;;;;;;5055052;28;20197;-94
2022/08/03 06:21:07;;;;;;;4.10;2.93;;;18.50;99.90;;;;;;5053156;28;20204;-94
2022/08/03 06:23:47;;;;;;;5.43;2.93;;;18.50;99.90;;;;;;5044494;28;20296;-94
2022/08/03 06:26:35;;;;;;;6.57;2.80;;;18.40;99.90;;;;;;5047513;28;20220;-94
2022/08/03 06:38:18;;;;;;;4.47;2.87;;;18.30;99.90;;;;;;5031033;28;20212;-95
2022/08/03 06:40:54;;;;;;;6.17;3.23;;;18.20;99.90;;;;;;5029738;28;20216;-94
2022/08/03 06:43:34;;;;;;;5.57;3.17;;;18.20;99.90;;;;;;5034012;28;20250;-95
2022/08/03 06:46:09;;;;;;;8.87;3.23;;;18.20;99.90;;;;;;5031164;28;20229;-96
2022/08/03 06:51:49;;;;;;;5.33;3.33;;;18.10;99.90;;;;;;5029495;28;20216;-95
2022/08/03 06:55:01;;;;;;;3.47;3.13;;;18.10;99.90;;;;;;5028309;28;20214;-95
2022/08/03 06:57:33;;;;;;;5.20;3.20;;;18.10;99.90;;;;;;5031250;28;20581;-95
2022/08/03 07:00:06;;;;;;;6.27;3.57;;;18.10;99.90;;;;;;5030169;28;20647;-95
2022/08/03 07:02:44;;;;;;;4.37;3.67;;;18.10;99.90;;;;;;5029988;28;20238;-95
2022/08/03 07:17:43;;;;;;;4.37;3.40;;;17.90;99.90;;;;;;5036758;28;20216;-95
2022/08/03 07:20:19;;;;;;;5.27;3.90;;;17.70;99.90;;;;;;5030145;28;20217;-96
2022/08/03 07:22:52;;;;;;;6.97;3.60;;;17.60;99.90;;;;;;5022166;28;20221;-94
2022/08/03 07:25:24;;;;;;;5.73;3.63;;;17.50;99.90;;;;;;5017579;28;20225;-94
2022/08/03 07:27:57;;;;;;;7.60;4.10;;;17.60;99.90;;;;;;5018516;28;20260;-95
2022/08/03 07:30:29;;;;;;;4.17;3.77;;;17.60;99.90;;;;;;5017938;28;20280;-94
2022/08/03 07:33:02;;;;;;;5.87;4.10;;;17.60;99.90;;;;;;5016923;28;20233;-95
2022/08/03 07:35:34;;;;;;;5.30;3.33;;;17.50;99.90;;;;;;5017809;28;20217;-95
2022/08/03 07:38:06;;;;;;;4.47;3.80;;;17.50;99.90;;;;;;5018383;28;20206;-94
2022/08/03 07:40:38;;;;;;;7.50;3.80;;;17.50;99.90;;;;;;5017868;28;21133;-95
2022/08/03 07:43:18;;;;;;;5.90;3.37;;;17.50;99.90;;;;;;5018085;28;20658;-92
2022/08/03 07:45:51;;;;;;;7.20;3.77;;;17.40;99.90;;;;;;5017716;28;20217;-93
2022/08/03 07:48:26;;;;;;;5.00;3.30;;;17.50;99.90;;;;;;5026744;28;20236;-94
2022/08/03 07:51:07;;;;;;;5.70;3.70;;;17.40;99.90;;;;;;5026749;28;20275;-95
2022/08/03 07:56:36;;;;;;;4.10;3.57;;;17.50;99.90;;;;;;5036626;28;20216;-94
2022/08/03 07:59:10;;;;;;;5.23;3.37;;;17.40;99.90;;;;;;5036422;28;20205;-94
2022/08/03 08:01:41;;;;;;;5.20;3.67;;;17.40;99.90;;;;;;5033359;28;20275;-95
2022/08/03 08:04:13;;;;;;;4.40;3.40;;;17.30;99.90;;;;;;5024276;28;20240;-94
2022/08/03 08:06:44;;;;;;;5.70;4.00;;;17.10;99.90;;;;;;5026670;28;20217;-95
2022/08/03 08:09:16;;;;;;;5.53;3.63;;;17.00;99.90;;;;;;5021405;28;20217;-94
2022/08/03 08:11:47;;;;;;;4.70;3.77;;;17.00;99.90;;;;;;5019322;28;20244;-92
2022/08/03 08:14:22;;;;;;;7.80;4.07;;;17.00;99.90;;;;;;5019087;28;20704;-95
2022/08/03 08:16:58;;;;;;;5.00;3.60;;;17.00;99.90;;;;;;5023359;28;20271;-95
2022/08/03 08:19:37;;;;;;;6.10;3.80;;;16.90;99.90;;;;;;5018973;28;20229;-94
2022/08/03 08:22:20;;;;;;;6.37;3.63;;;16.90;99.90;;;;;;5021521;28;20573;-95
2022/08/03 08:24:59;;;;;;;5.10;3.50;;;17.00;99.90;;;;;;5018471;28;20263;-94
2022/08/03 08:27:31;;;;;;;6.10;3.77;;;17.00;99.90;;;;;;5018119;28;20240;-94
2022/08/03 08:30:25;;;;;;;4.30;3.27;;;16.90;99.90;;;;;;5004647;28;20210;-96
2022/08/03 08:32:58;;;;;;;6.00;3.43;;;16.90;99.90;;;;;;4997860;28;20209;-95
2022/08/03 08:35:31;;;;;;;6.63;3.37;;;16.90;99.90;;;;;;4997970;28;20221;-95
2022/08/03 08:38:02;;;;;;;5.93;3.53;;;16.90;99.90;;;;;;4998055;28;20244;-94
2022/08/03 08:40:35;;;;;;;4.93;3.77;;;16.90;99.90;;;;;;5002029;28;20214;-94
2022/08/03 08:43:08;;;;;;;7.20;3.63;;;16.80;99.90;;;;;;5017139;28;20241;-94
2022/08/03 08:45:43;;;;;;;6.40;3.57;;;16.80;99.90;;;;;;5021410;28;20236;-95
2022/08/03 08:48:16;;;;;;;9.97;3.77;;;16.80;99.90;;;;;;5035131;28;20201;-95
2022/08/03 08:50:49;;;;;;;4.90;3.37;;;16.70;99.90;;;;;;5035026;28;20198;-94
2022/08/03 08:53:23;;;;;;;8.03;3.43;;;16.70;99.90;;;;;;5035504;28;20208;-95
2022/08/03 08:56:02;;;;;;;8.57;3.60;;;16.60;99.90;;;;;;5035372;28;20260;-95
2022/08/03 08:58:38;;;;;;;5.03;3.20;;;16.50;99.90;;;;;;5020209;28;20677;-94
2022/08/03 09:01:12;;;;;;;5.30;3.60;;;16.50;99.90;;;;;;5017631;28;20220;-94
2022/08/03 09:03:43;;;;;;;8.23;3.47;;;16.50;99.90;;;;;;5018132;28;20671;-94
2022/08/03 09:06:16;;;;;;;5.17;3.37;;;16.40;99.90;;;;;;5017574;28;20233;-94
2022/08/03 09:08:48;;;;;;;5.03;3.63;;;16.40;99.90;;;;;;5029913;28;20235;-94
2022/08/03 09:11:24;;;;;;;7.07;3.73;;;16.40;99.90;;;;;;5035034;28;20201;-96
2022/08/03 09:14:16;;;;;;;5.63;3.30;;;16.40;99.90;;;;;;5035726;28;20249;-93
2022/08/03 09:17:11;;;;;;;8.03;3.83;;;16.40;99.90;;;;;;5036202;28;20197;-95
2022/08/03 09:20:08;;;;;;;4.47;3.33;;;16.50;99.90;;;;;;5035888;28;20237;-94
2022/08/03 09:22:54;;;;;;;7.00;3.20;;;16.30;99.90;;;;;;5035399;28;20193;-94
2022/08/03 09:25:30;;;;;;;7.13;3.00;;;16.30;99.90;;;;;;5035846;28;20267;-94
2022/08/03 09:28:11;;;;;;;6.80;3.40;;;16.30;99.90;;;;;;5036445;28;20205;-94
2022/08/03 09:31:02;;;;;;;5.77;3.20;;;16.30;99.90;;;;;;5028834;28;20248;-93
2022/08/03 09:33:48;;;;;;;6.20;3.30;;;16.30;99.90;;;;;;5020604;28;20216;-94
2022/08/03 09:36:39;;;;;;;6.87;3.00;;;16.30;99.90;;;;;;5021238;28;20661;-93
2022/08/03 09:39:16;;;;;;;6.13;3.40;;;16.30;99.90;;;;;;5023723;28;20217;-94
2022/08/03 09:41:51;;;;;;;6.37;3.37;;;16.30;99.90;;;;;;5035205;28;20189;-94
2022/08/03 09:44:36;;;;;;;6.20;2.97;;;16.30;99.90;;;;;;5036297;28;20603;-94
2022/08/03 09:47:08;;;;;;;5.27;2.93;;;16.30;99.90;;;;;;5036318;28;20312;-94
2022/08/03 09:49:43;;;;;;;6.43;3.00;;;16.30;99.90;;;;;;5036588;28;20210;-94
2022/08/03 09:52:17;;;;;;;7.00;2.90;;;16.20;99.90;;;;;;5034905;28;20211;-93
2022/08/03 09:55:11;;;;;;;5.43;3.10;;;16.20;99.90;;;;;;5024213;28;20213;-93
2022/08/03 09:58:09;;;;;;;4.73;2.97;;;16.20;99.90;;;;;;5024649;28;20281;-94
2022/08/03 10:00:55;;;;;;;6.37;3.23;;;16.20;99.90;;;;;;5037779;28;20197;-93
2022/08/03 10:03:28;;;;;;;8.67;2.80;;;16.10;99.90;;;;;;5034774;28;20261;-93
2022/08/03 10:06:16;;;;;;;4.10;2.60;;;16.10;99.90;;;;;;5022275;28;20260;-93
2022/08/03 10:08:48;;;;;;;4.93;2.67;;;16.20;99.90;;;;;;5021456;28;20643;-93
2022/08/03 10:11:33;;;;;;;6.23;3.03;;;16.10;99.90;;;;;;5020889;28;20295;-93
2022/08/03 10:14:17;;;;;;;7.03;3.00;;;16.10;99.90;;;;;;5021732;28;20252;-93
2022/08/03 10:16:50;;;;;;;5.40;3.00;;;16.10;99.90;;;;;;5039981;28;20216;-94
2022/08/03 10:19:21;;;;;;;5.27;3.00;;;16.00;99.90;;;;;;5041413;28;20240;-94
2022/08/03 10:21:57;;;;;;;4.27;3.00;;;16.00;99.90;;;;;;5038948;28;20211;-93
2022/08/03 10:24:31;;;;;;;5.83;2.57;;;15.90;99.90;;;;;;5021261;28;20205;-93
2022/08/03 10:27:06;;;;;;;8.23;3.20;;;15.90;99.90;;;;;;5022015;28;20233;-94
2022/08/03 10:29:52;;;;;;;3.90;2.87;;;15.90;99.90;;;;;;5021728;28;20259;-94
2022/08/03 10:32:29;;;;;;;9.20;3.07;;;15.80;99.90;;;;;;5020186;28;20217;-94
2022/08/03 10:35:05;;;;;;;5.07;2.73;;;15.80;99.90;;;;;;5013763;28;20265;-94
2022/08/03 10:37:59;;;;;;;9.17;3.00;;;15.80;99.90;;;;;;5004748;28;20225;-93
2022/08/03 10:40:32;;;;;;;6.43;3.03;;;15.70;99.90;;;;;;5005182;28;20214;-94
2022/08/03 10:43:28;;;;;;;6.40;3.10;;;15.70;99.90;;;;;;5000954;28;20273;-94
2022/08/03 10:46:00;;;;;;;3.23;2.70;;;15.60;99.90;;;;;;5001456;28;20606;-94
2022/08/03 10:48:34;;;;;;;4.63;2.87;;;15.60;99.90;;;;;;5000510;28;20218;-94
2022/08/03 10:51:06;;;;;;;4.77;3.07;;;15.60;99.90;;;;;;5000755;28;20202;-94
2022/08/03 10:53:42;;;;;;;4.73;2.90;;;15.60;99.90;;;;;;5016715;28;20667;-93
2022/08/03 11:00:03;;;;;;;5.13;3.00;;;15.50;99.90;;;;;;5020865;28;20737;-93
2022/08/03 11:03:03;;;;;;;5.77;3.13;;;15.50;99.90;;;;;;5020660;28;20598;-94
2022/08/03 11:05:36;;;;;;;4.97;3.30;;;15.50;99.90;;;;;;5020660;28;20276;-94
2022/08/03 11:08:25;;;;;;;4.33;2.93;;;15.40;99.90;;;;;;5020450;28;20209;-94
2022/08/03 11:11:02;;;;;;;5.93;2.97;;;15.40;99.90;;;;;;5018862;28;20220;-94
2022/08/03 11:13:34;;;;;;;5.83;3.47;;;15.40;99.90;;;;;;5019312;28;20263;-93
2022/08/03 11:16:21;;;;;;;5.80;3.10;;;15.30;99.90;;;;;;5020570;28;20277;-93
2022/08/03 11:19:01;;;;;;;5.73;3.27;;;15.30;99.90;;;;;;5020357;28;20201;-93
2022/08/03 11:21:54;;;;;;;5.73;3.10;;;15.20;99.90;;;;;;5021643;28;20209;-93
2022/08/03 11:25:03;;;;;;;6.57;3.43;;;15.20;99.90;;;;;;5001918;28;20214;-93
2022/08/03 11:27:37;;;;;;;7.03;3.70;;;15.00;99.90;;;;;;5003013;28;20248;-93
2022/08/03 11:30:12;;;;;;;7.67;3.87;;;15.00;99.90;;;;;;5005121;28;20277;-93
2022/08/03 11:33:02;;;;;;;7.37;4.07;;;15.00;99.90;;;;;;5015974;28;20208;-93
2022/08/03 11:35:35;;;;;;;6.90;3.40;;;14.90;99.90;;;;;;5018201;28;20206;-94
2022/08/03 11:38:13;;;;;;;6.73;4.00;;;15.00;99.90;;;;;;5029711;28;20193;-96
2022/08/03 11:40:48;;;;;;;9.57;4.00;;;14.90;99.90;;;;;;5038025;28;20209;-94
2022/08/03 11:43:50;;;;;;;6.77;4.00;;;14.90;99.90;;;;;;5038093;28;20194;-93
2022/08/03 11:46:23;;;;;;;5.77;3.90;;;14.90;99.90;;;;;;5038257;28;20315;-93
2022/08/03 11:49:07;;;;;;;6.37;3.27;;;14.80;99.90;;;;;;5038386;28;20198;-93
2022/08/03 11:51:40;;;;;;;9.10;4.47;;;14.90;99.90;;;;;;5037421;28;20262;-93
2022/08/03 11:54:11;;;;;;;6.37;4.27;;;14.80;99.90;;;;;;5038296;28;20228;-93
2022/08/03 11:56:48;;;;;;;7.77;4.20;;;14.80;99.90;;;;;;5038134;28;20210;-93
2022/08/03 11:59:34;;;;;;;6.63;3.93;;;14.80;99.90;;;;;;5033200;28;20206;-93
2022/08/03 12:02:08;;;;;;;9.10;4.13;;;14.80;99.90;;;;;;5018898;28;20271;-94
2022/08/03 12:04:52;;;;;;;5.67;3.87;;;14.70;99.90;;;;;;5018837;28;20236;-93
2022/08/03 12:07:23;;;;;;;7.17;4.40;;;14.70;99.90;;;;;;5019092;28;20681;-93
2022/08/03 12:10:15;;;;;;;5.57;4.20;;;14.60;99.90;;;;;;5018838;28;20210;-93
2022/08/03 12:12:56;;;;;;;7.73;4.50;;;14.60;99.90;;;;;;5018323;28;20206;-94
2022/08/03 12:15:32;;;;;;;9.07;4.60;;;14.60;99.90;;;;;;5018388;28;20202;-94
2022/08/03 12:18:05;;;;;;;9.53;4.20;;;14.50;99.90;;;;;;5018579;28;20547;-93
2022/08/03 12:20:40;;;;;;;7.50;4.67;;;14.50;99.90;;;;;;5017374;28;20212;-93
2022/08/03 12:23:12;;;;;;;7.30;4.40;;;14.40;99.90;;;;;;5016997;28;20287;-93
2022/08/03 12:25:45;;;;;;;9.33;4.40;;;14.40;99.90;;;;;;5017595;28;20268;-93
2022/08/03 12:28:27;;;;;;;9.47;4.40;;;14.40;99.90;;;;;;4998194;28;20586;-93
2022/08/03 12:31:10;;;;;;;7.73;4.77;;;14.40;99.90;;;;;;4997214;28;20554;-93
2022/08/03 12:33:58;;;;;;;8.83;5.00;;;14.30;99.90;;;;;;4997925;28;20585;-93
2022/08/03 12:36:30;;;;;;;9.77;4.53;;;14.20;99.90;;;;;;4997690;28;20218;-93
2022/08/03 12:39:04;;;;;;;12.20;5.30;;;14.20;99.90;;;;;;4998246;28;20214;-93
2022/08/03 12:41:42;;;;;;;7.07;4.70;;;14.20;99.90;;;;;;4999618;28;20194;-94
2022/08/03 12:44:14;;;;;;;10.47;5.13;;;14.20;99.90;;;;;;4998025;28;20229;-94
2022/08/03 12:46:48;;;;;;;10.13;5.80;;;14.10;99.90;;;;;;4997128;28;20258;-94
2022/08/03 12:49:20;;;;;;;10.57;5.10;;;14.10;99.90;;;;;;4997577;28;20272;-94
2022/08/03 12:51:58;;;;;;;9.50;5.47;;;14.20;99.90;;;;;;4997278;28;20268;-94
2022/08/03 12:54:36;;;;;;;10.00;4.90;;;14.20;99.90;;;;;;4997316;28;20217;-94
2022/08/03 12:57:09;;;;;;;8.63;5.47;;;14.20;99.90;;;;;;4997488;28;20214;-93
2022/08/03 12:59:47;;;;;;;11.87;5.63;;;14.20;99.90;;;;;;4997533;28;20214;-93
2022/08/03 13:02:27;;;;;;;8.67;5.00;;;14.20;99.90;;;;;;4996717;28;20216;-93
2022/08/03 13:05:12;;;;;;;7.67;5.30;;;14.10;99.90;;;;;;4995648;28;20252;-94
2022/08/03 13:07:44;;;;;;;9.80;5.20;;;14.20;99.90;;;;;;4998012;28;20234;-94
2022/08/03 13:10:29;;;;;;;10.97;5.27;;;14.10;99.90;;;;;;5004000;28;20206;-94
2022/08/03 13:13:03;;;;;;;9.40;5.53;;;14.20;99.90;;;;;;4997937;28;20221;-94
2022/08/03 13:15:34;;;;;;;6.93;5.03;;;14.10;99.90;;;;;;4999246;28;20213;-94
2022/08/03 13:18:19;;;;;;;8.40;5.53;;;14.10;99.90;;;;;;4997612;28;20566;-93
2022/08/03 13:20:50;;;;;;;10.23;6.33;;;14.20;99.90;;;;;;4999379;28;20206;-93
2022/08/03 13:23:21;;;;;;;6.30;5.47;;;14.20;99.90;;;;;;4996835;28;20245;-93
2022/08/03 13:25:54;;;;;;;10.03;5.17;;;14.20;99.90;;;;;;4997093;28;20256;-94
2022/08/03 13:28:26;;;;;;;9.63;5.67;;;14.10;99.90;;;;;;4997027;28;20230;-93
2022/08/03 13:30:58;;;;;;;8.03;5.80;;;14.10;99.90;;;;;;4996039;28;20670;-94
2022/08/03 13:33:32;;;;;;;10.30;5.57;;;14.20;99.90;;;;;;4998328;28;20210;-94
2022/08/03 13:36:03;;;;;;;7.67;5.50;;;14.20;99.90;;;;;;5000503;28;20629;-94
2022/08/03 13:38:34;;;;;;;13.77;5.63;;;14.20;99.90;;;;;;5000710;28;20288;-93
2022/08/03 13:41:05;;;;;;;9.23;5.93;;;14.30;99.90;;;;;;4999937;28;20252;-92
2022/08/03 13:43:39;;;;;;;8.97;5.43;;;14.30;99.90;;;;;;5000830;28;20224;-93
2022/08/03 13:46:11;;;;;;;6.80;5.07;;;14.40;99.90;;;;;;5000328;28;20626;-93
2022/08/03 13:48:45;;;;;;;7.87;5.83;;;14.50;99.90;;;;;;5000548;28;20234;-93
2022/08/03 13:51:16;;;;;;;9.53;5.40;;;14.60;99.90;;;;;;4999303;28;20586;-93
2022/08/03 13:53:52;;;;;;;8.20;5.60;;;14.70;99.90;;;;;;5000554;28;20237;-93
2022/08/03 13:56:23;;;;;;;7.77;5.50;;;14.80;99.90;;;;;;5000488;28;20615;-93
2022/08/03 13:58:54;;;;;;;9.87;5.50;;;15.00;99.90;;;;;;5000617;28;20222;-93
2022/08/03 14:01:26;;;;;;;10.90;5.40;;;15.10;99.90;;;;;;5000079;28;20581;-93
2022/08/03 14:04:19;;;;;;;8.53;5.47;;;15.30;99.90;;;;;;5003013;28;20205;-93
2022/08/03 14:06:51;;;;;;;10.07;5.30;;;15.30;99.90;;;;;;4999803;28;20218;-94
2022/08/03 14:09:23;;;;;;;10.23;5.07;;;15.30;99.90;;;;;;5000409;28;20237;-94
2022/08/03 14:11:57;;;;;;;7.73;5.07;;;15.50;99.90;;;;;;4999717;28;20700;-93
2022/08/03 14:14:37;;;;;;;7.50;5.00;;;15.70;99.90;;;;;;5000082;28;20206;-94
2022/08/03 14:17:08;;;;;;;9.30;5.50;;;15.80;99.90;;;;;;5019534;28;20213;-93
2022/08/03 14:19:43;;;;;;;9.03;5.17;;;15.70;99.90;;;;;;5019988;28;20228;-93
2022/08/03 14:22:23;;;;;;;9.83;5.17;;;15.80;99.90;;;;;;5018932;28;20210;-93
2022/08/03 14:24:54;;;;;;;9.10;5.10;;;15.80;99.90;;;;;;5005854;28;20203;-94
2022/08/03 14:27:26;;;;;;;11.47;5.90;;;16.00;99.90;;;;;;4980795;28;20234;-94
2022/08/03 14:30:00;;;;;;;8.50;5.00;;;16.10;99.90;;;;;;4980572;28;20243;-94
2022/08/03 14:32:31;;;;;;;10.73;5.47;;;16.20;99.90;;;;;;4980163;28;20723;-94
2022/08/03 14:35:04;;;;;;;10.77;6.13;;;16.20;99.90;;;;;;4980341;28;20241;-94
2022/08/03 14:37:36;;;;;;;6.73;4.97;;;16.00;99.90;;;;;;4980067;28;20219;-94
2022/08/03 14:40:08;;;;;;;10.40;6.13;;;16.10;99.90;;;;;;4980748;28;20258;-93
2022/08/03 14:42:40;;;;;;;11.93;5.93;;;16.10;99.90;;;;;;4979037;28;20211;-94
2022/08/03 14:45:14;;;;;;;9.67;6.47;;;15.70;99.90;;;;;;4978242;28;20246;-95
2022/08/03 14:47:49;;;;;;;11.60;6.07;;;15.50;99.90;;;;;;4980665;28;20577;-93
2022/08/03 14:50:56;;;;;;;12.80;5.97;;;15.50;99.90;;;;;;4983719;28;20229;-94
2022/08/03 14:53:37;;;;;;;12.17;5.77;;;15.70;99.90;;;;;;4987136;28;20211;-92
2022/08/03 14:56:18;;;;;;;13.73;7.10;;;15.90;99.90;;;;;;4984836;28;20211;-94
2022/08/03 14:58:59;;;;;;;9.53;6.27;;;16.00;99.90;;;;;;4997363;28;20235;-94
2022/08/03 15:01:39;;;;;;;8.87;7.53;;;15.90;99.90;;;;;;4999676;28;20199;-93
2022/08/03 15:08:02;;;;;;;10.57;6.50;;;15.90;99.90;;;;;;5000154;28;20215;-94
2022/08/03 15:11:15;;;;;;;9.40;6.77;;;15.70;99.90;;;;;;5000049;28;20218;-96
2022/08/03 15:13:50;;;;;;;8.30;6.27;;;16.20;99.90;;;;;;4997588;28;20199;-93
2022/08/03 15:16:29;;;;;;;10.10;6.43;;;16.40;99.90;;;;;;4992898;28;20207;-94
2022/08/03 15:19:03;;;;;;;8.90;6.40;;;16.70;99.90;;;;;;4992847;28;20217;-94
2022/08/03 15:22:00;;;;;;;9.73;7.47;;;16.50;99.90;;;;;;4991050;28;20672;-95
2022/08/03 15:24:44;;;;;;;12.43;8.03;;;16.30;99.90;;;;;;4997918;28;20206;-95
2022/08/03 15:27:28;;;;;;;9.50;6.80;;;16.40;99.90;;;;;;5011437;28;20206;-94
2022/08/03 15:30:13;;;;;;;9.27;6.90;;;16.40;99.90;;;;;;5011018;28;20218;-93
2022/08/03 15:32:50;;;;;;;7.87;7.07;;;16.50;99.90;;;;;;5011483;28;20202;-94
2022/08/03 15:35:34;;;;;;;8.77;6.83;;;16.60;99.90;;;;;;5010217;28;20210;-94
2022/08/03 15:38:06;;;;;;;9.87;7.87;;;16.60;99.90;;;;;;5010013;28;20218;-93
2022/08/03 15:40:41;;;;;;;9.90;8.10;;;15.90;99.90;;;;;;5012070;28;20217;-95
2022/08/03 15:46:04;;;;;;;11.53;8.23;;;15.50;99.90;;;;;;5015863;28;20205;-94